Time;durP1;ratioP1;P1;durP2;ratioP2;P2;SDS_P1;SDS_P2;PMS_P1;PMS_P2;Temp;Humidity;BMP_temperature;BMP_pressure;BME280_temperature;BME280_humidity;BME280_pressure;Samples;Min_cycle;Max_cycle;Signal;HPM_P1;HPM_P2
2021/03/09 00:01:39;;;;;;;9.55;4.15;;;16.90;38.20;;;;;;5094700;28;20051;-72
2021/03/09 00:04:05;;;;;;;13.73;4.50;;;16.60;38.30;;;;;;5094032;28;20049;-70
2021/03/09 00:06:32;;;;;;;10.65;2.90;;;16.50;39.10;;;;;;5096844;28;20032;-73
2021/03/09 00:08:58;;;;;;;11.80;3.65;;;16.40;39.50;;;;;;5098372;28;20020;-72
2021/03/09 00:11:25;;;;;;;10.55;2.83;;;16.20;39.40;;;;;;5100702;28;20084;-72
2021/03/09 00:13:51;;;;;;;7.53;3.33;;;16.10;39.50;;;;;;5101037;28;20381;-71
2021/03/09 00:16:17;;;;;;;12.10;2.55;;;16.00;39.20;;;;;;5098430;28;20063;-72
2021/03/09 00:18:44;;;;;;;10.15;2.67;;;16.00;39.30;;;;;;5091458;28;20028;-71
2021/03/09 00:21:11;;;;;;;11.88;3.00;;;15.90;39.50;;;;;;5101039;28;20036;-72
2021/03/09 00:23:37;;;;;;;19.70;2.97;;;15.80;40.10;;;;;;5098252;28;20522;-72
2021/03/09 00:26:03;;;;;;;12.98;2.92;;;15.80;40.10;;;;;;5097364;28;20028;-72
2021/03/09 00:28:30;;;;;;;9.52;3.72;;;15.80;40.80;;;;;;5105718;28;20030;-72
2021/03/09 00:30:56;;;;;;;9.32;3.25;;;15.80;40.80;;;;;;5104376;28;20027;-73
2021/03/09 00:33:23;;;;;;;14.60;3.90;;;15.80;41.20;;;;;;5104311;28;20024;-76
2021/03/09 00:35:49;;;;;;;17.80;3.47;;;15.70;41.20;;;;;;5106298;28;20029;-74
2021/03/09 00:38:15;;;;;;;15.32;3.08;;;15.80;41.20;;;;;;5105405;28;20510;-72
2021/03/09 00:40:42;;;;;;;12.07;2.72;;;15.70;41.30;;;;;;5103890;28;20120;-72
2021/03/09 00:43:08;;;;;;;10.07;2.63;;;15.70;41.80;;;;;;5107415;28;20095;-72
2021/03/09 00:45:35;;;;;;;8.02;2.50;;;15.50;41.90;;;;;;5103263;28;20024;-72
2021/03/09 00:48:01;;;;;;;8.02;2.97;;;15.40;42.30;;;;;;5099052;28;20031;-72
2021/03/09 00:50:28;;;;;;;5.40;2.22;;;15.50;42.50;;;;;;5103969;28;20031;-72
2021/03/09 00:52:54;;;;;;;8.63;2.72;;;15.60;42.40;;;;;;5100851;28;20044;-72
2021/03/09 00:55:20;;;;;;;7.82;2.50;;;15.80;42.40;;;;;;5097247;28;20493;-72
2021/03/09 00:57:58;;;;;;;12.40;3.25;;;15.70;42.40;;;;;;5106034;28;20035;-71
2021/03/09 01:00:27;;;;;;;7.30;3.33;;;15.60;42.70;;;;;;5102008;28;20032;-71
2021/03/09 01:02:54;;;;;;;7.28;2.50;;;15.60;42.90;;;;;;5102745;28;20111;-72
2021/03/09 01:05:21;;;;;;;6.75;3.13;;;15.70;43.40;;;;;;5101995;28;20043;-72
2021/03/09 01:07:48;;;;;;;8.70;2.75;;;15.50;43.30;;;;;;5101429;28;20036;-71
2021/03/09 01:10:16;;;;;;;11.40;3.55;;;15.60;43.80;;;;;;5105085;28;20031;-72
2021/03/09 01:12:43;;;;;;;13.85;2.88;;;15.70;44.20;;;;;;5098497;28;20023;-72
2021/03/09 01:15:10;;;;;;;11.45;2.58;;;15.70;44.40;;;;;;5093463;28;20036;-72
2021/03/09 01:17:37;;;;;;;13.70;3.03;;;15.70;44.40;;;;;;5102915;28;20445;-73
2021/03/09 01:20:07;;;;;;;12.82;3.05;;;15.60;44.30;;;;;;5097881;28;20051;-72
2021/03/09 01:22:33;;;;;;;7.35;3.42;;;15.50;44.30;;;;;;5101231;28;20036;-72
2021/03/09 01:24:59;;;;;;;12.98;3.33;;;15.40;44.80;;;;;;5093819;28;20508;-72
2021/03/09 01:27:26;;;;;;;12.25;2.72;;;15.30;45.10;;;;;;5101865;28;20039;-71
2021/03/09 01:29:52;;;;;;;15.27;5.68;;;15.10;45.10;;;;;;5101463;28;20051;-71
2021/03/09 01:32:19;;;;;;;16.40;3.90;;;15.00;45.60;;;;;;5102826;28;20387;-71
2021/03/09 01:34:45;;;;;;;12.65;3.47;;;15.10;45.90;;;;;;5102454;28;20511;-71
2021/03/09 01:37:12;;;;;;;11.25;3.15;;;14.90;45.50;;;;;;5105140;28;20358;-72
2021/03/09 01:39:38;;;;;;;16.77;4.95;;;14.80;46.30;;;;;;5103644;28;20401;-72
2021/03/09 01:42:05;;;;;;;12.25;2.80;;;15.00;45.70;;;;;;5106288;28;20031;-71
2021/03/09 01:44:31;;;;;;;11.30;3.88;;;14.80;46.20;;;;;;5104870;28;20115;-72
2021/03/09 01:47:01;;;;;;;15.15;3.50;;;14.70;45.90;;;;;;5103676;28;20024;-72
2021/03/09 01:49:32;;;;;;;12.85;3.60;;;14.60;45.80;;;;;;5104211;28;20081;-72
2021/03/09 01:51:59;;;;;;;11.45;2.83;;;14.80;47.00;;;;;;5103085;28;20060;-71
2021/03/09 01:56:35;;;;;;;14.23;3.53;;;14.60;45.30;;;;;;5112913;27;20885;-71
2021/03/09 01:59:02;;;;;;;13.43;3.67;;;14.80;46.50;;;;;;5118942;28;20113;-69
2021/03/09 02:01:28;;;;;;;11.32;4.30;;;14.50;46.20;;;;;;5119331;28;20038;-71
2021/03/09 02:03:55;;;;;;;18.30;5.97;;;14.70;46.90;;;;;;5115732;27;20487;-70
2021/03/09 02:06:22;;;;;;;20.80;4.90;;;14.60;46.80;;;;;;5122448;28;20028;-70
2021/03/09 02:08:48;;;;;;;15.07;3.88;;;14.50;46.80;;;;;;5120088;28;20027;-70
2021/03/09 02:11:30;;;;;;;15.90;4.47;;;14.50;47.20;;;;;;5119747;27;20043;-71
2021/03/09 02:14:20;;;;;;;12.95;4.63;;;14.20;47.10;;;;;;5120727;28;20063;-70
2021/03/09 02:17:19;;;;;;;16.48;4.10;;;14.20;47.00;;;;;;5119781;28;20098;-71
2021/03/09 02:20:18;;;;;;;19.73;5.18;;;14.00;47.10;;;;;;5083933;28;20111;-71
2021/03/09 02:23:10;;;;;;;18.73;5.80;;;13.90;47.60;;;;;;5120313;28;20024;-71
2021/03/09 02:26:03;;;;;;;13.18;4.10;;;13.80;47.60;;;;;;5119151;28;20069;-71
2021/03/09 02:28:57;;;;;;;15.63;6.25;;;13.70;47.60;;;;;;5114863;28;20019;-71
2021/03/09 02:31:26;;;;;;;12.07;3.92;;;13.80;47.90;;;;;;5119749;28;20028;-71
2021/03/09 02:33:59;;;;;;;12.48;3.50;;;13.80;48.10;;;;;;5117394;28;20019;-71
2021/03/09 02:36:28;;;;;;;16.80;4.82;;;13.80;47.70;;;;;;5115763;28;20020;-70
2021/03/09 02:38:58;;;;;;;12.60;3.72;;;13.70;48.70;;;;;;5115188;28;20515;-69
2021/03/09 02:41:28;;;;;;;18.27;4.05;;;13.70;48.30;;;;;;5119651;28;20110;-71
2021/03/09 02:43:55;;;;;;;19.92;5.82;;;13.60;48.10;;;;;;5117643;27;20111;-71
2021/03/09 02:46:25;;;;;;;9.30;4.05;;;13.60;48.40;;;;;;5114703;28;20024;-72
2021/03/09 02:48:52;;;;;;;13.35;5.00;;;13.50;48.60;;;;;;5118664;28;20084;-70
2021/03/09 02:51:24;;;;;;;12.05;5.47;;;13.50;49.30;;;;;;5115801;27;20023;-71
2021/03/09 02:53:53;;;;;;;15.05;4.20;;;13.40;49.40;;;;;;5118658;28;20035;-71
2021/03/09 02:56:20;;;;;;;8.60;3.35;;;13.50;49.50;;;;;;5118354;27;20372;-71
2021/03/09 02:58:53;;;;;;;13.23;3.75;;;13.50;49.50;;;;;;5110145;28;20060;-71
2021/03/09 03:01:21;;;;;;;11.82;4.90;;;13.30;49.40;;;;;;5115824;28;20465;-71
2021/03/09 03:03:50;;;;;;;9.20;4.00;;;13.20;50.10;;;;;;5118121;28;20019;-71
2021/03/09 03:06:16;;;;;;;11.05;3.47;;;13.20;49.70;;;;;;5112284;28;20045;-70
2021/03/09 03:08:45;;;;;;;14.63;4.70;;;13.10;50.30;;;;;;5105377;28;20019;-71
2021/03/09 03:11:12;;;;;;;12.32;3.78;;;13.10;49.70;;;;;;5102873;28;20031;-71
2021/03/09 03:13:41;;;;;;;12.20;4.15;;;13.10;50.40;;;;;;5106552;28;20020;-71
2021/03/09 03:16:10;;;;;;;11.82;3.33;;;13.10;50.90;;;;;;5106986;28;20055;-75
2021/03/09 03:18:40;;;;;;;9.60;2.80;;;13.00;50.40;;;;;;5102514;28;20371;-72
2021/03/09 03:21:10;;;;;;;9.90;3.35;;;13.00;51.10;;;;;;5103789;28;20016;-71
2021/03/09 03:23:38;;;;;;;12.20;4.07;;;13.10;51.20;;;;;;5105524;28;20093;-72
2021/03/09 03:26:06;;;;;;;6.68;2.92;;;13.10;50.70;;;;;;5105590;28;20027;-71
2021/03/09 03:28:34;;;;;;;9.60;3.00;;;13.10;50.60;;;;;;5103601;28;20082;-71
2021/03/09 03:31:04;;;;;;;10.20;4.57;;;13.10;50.50;;;;;;5106879;28;20055;-71
2021/03/09 03:33:31;;;;;;;7.22;4.35;;;13.00;50.70;;;;;;5103471;28;20116;-72
2021/03/09 03:36:05;;;;;;;12.27;3.58;;;13.10;51.00;;;;;;5104078;28;20034;-72
2021/03/09 03:38:37;;;;;;;8.18;3.45;;;13.00;50.80;;;;;;5104093;28;20019;-72
2021/03/09 03:41:05;;;;;;;12.90;3.45;;;13.00;51.00;;;;;;5102699;28;20016;-71
2021/03/09 03:43:32;;;;;;;9.48;3.05;;;13.00;51.10;;;;;;5105489;28;20023;-72
2021/03/09 03:45:58;;;;;;;8.82;3.28;;;13.10;51.00;;;;;;5105132;28;20046;-71
2021/03/09 03:48:26;;;;;;;11.15;5.13;;;13.00;51.00;;;;;;5106380;28;20019;-72
2021/03/09 03:50:55;;;;;;;12.68;2.83;;;13.10;51.10;;;;;;5104492;28;20470;-71
2021/03/09 03:53:49;;;;;;;7.15;2.92;;;13.00;51.00;;;;;;5103824;28;20038;-72
2021/03/09 03:56:30;;;;;;;7.47;2.42;;;13.00;51.10;;;;;;5098406;28;20027;-72
2021/03/09 03:59:15;;;;;;;6.07;2.93;;;12.90;50.90;;;;;;5102090;28;20039;-71
2021/03/09 04:01:43;;;;;;;4.97;2.92;;;12.80;51.50;;;;;;5104845;28;20019;-71
2021/03/09 04:04:11;;;;;;;5.78;3.20;;;12.90;51.00;;;;;;5098933;28;20455;-71
2021/03/09 04:06:47;;;;;;;5.85;3.47;;;12.90;51.00;;;;;;5101706;28;20032;-72
2021/03/09 04:09:15;;;;;;;6.05;2.85;;;12.90;51.10;;;;;;5101820;28;20023;-71
2021/03/09 04:11:42;;;;;;;8.23;3.42;;;12.90;50.80;;;;;;5103663;28;20463;-71
2021/03/09 04:14:12;;;;;;;7.85;3.28;;;12.90;51.20;;;;;;5104116;28;20081;-72
2021/03/09 04:16:42;;;;;;;10.13;3.95;;;13.00;51.20;;;;;;5102257;28;20027;-72
2021/03/09 04:19:12;;;;;;;9.40;3.75;;;13.00;50.90;;;;;;5104340;28;20172;-73
2021/03/09 04:21:42;;;;;;;8.82;3.20;;;13.00;51.00;;;;;;5098893;28;20549;-72
2021/03/09 04:24:10;;;;;;;10.30;3.10;;;12.80;51.40;;;;;;5106660;28;20096;-73
2021/03/09 04:26:39;;;;;;;9.82;3.65;;;12.80;51.40;;;;;;5103437;28;20028;-73
2021/03/09 04:29:07;;;;;;;7.60;3.05;;;12.80;51.40;;;;;;5103616;28;20016;-72
2021/03/09 04:31:33;;;;;;;7.85;3.05;;;12.70;51.50;;;;;;5103786;28;20106;-72
2021/03/09 04:34:00;;;;;;;8.95;2.70;;;12.70;51.50;;;;;;5104127;28;20533;-73
2021/03/09 04:36:29;;;;;;;7.22;2.92;;;12.70;51.40;;;;;;5097258;28;20039;-73
2021/03/09 04:38:56;;;;;;;7.75;2.75;;;12.70;51.60;;;;;;5103328;28;20019;-73
2021/03/09 04:41:22;;;;;;;8.70;3.50;;;12.70;51.30;;;;;;5095013;28;20035;-73
2021/03/09 04:43:49;;;;;;;7.85;2.90;;;12.60;51.60;;;;;;5103809;28;20034;-72
2021/03/09 04:46:16;;;;;;;8.65;3.78;;;12.60;51.70;;;;;;5100964;28;20036;-72
2021/03/09 04:48:42;;;;;;;8.70;2.92;;;12.50;52.30;;;;;;5101028;28;20032;-72
2021/03/09 04:51:14;;;;;;;4.78;2.80;;;12.40;51.90;;;;;;5099623;28;20107;-72
2021/03/09 04:53:41;;;;;;;10.05;3.70;;;12.40;51.80;;;;;;5101331;28;20115;-73
2021/03/09 04:56:08;;;;;;;7.68;3.17;;;12.50;51.50;;;;;;5101895;28;20127;-74
2021/03/09 04:58:35;;;;;;;8.93;3.83;;;12.50;51.70;;;;;;5104298;28;20134;-72
2021/03/09 05:01:03;;;;;;;7.20;2.85;;;12.50;51.90;;;;;;5118708;27;20039;-72
2021/03/09 05:03:30;;;;;;;9.68;3.20;;;12.20;52.30;;;;;;5104210;28;20027;-73
2021/03/09 05:05:56;;;;;;;7.05;3.15;;;12.10;52.30;;;;;;5103405;28;20035;-72
2021/03/09 05:08:23;;;;;;;8.00;2.70;;;12.00;52.50;;;;;;5104760;28;20501;-72
2021/03/09 05:10:49;;;;;;;7.78;2.75;;;11.90;52.20;;;;;;5103927;28;20403;-72
2021/03/09 05:13:16;;;;;;;7.35;3.00;;;11.90;52.30;;;;;;5098749;28;20054;-72
2021/03/09 05:15:43;;;;;;;6.20;3.13;;;11.90;52.20;;;;;;5104013;28;20022;-72
2021/03/09 05:18:10;;;;;;;8.38;4.43;;;12.00;52.90;;;;;;5104105;28;20023;-72
2021/03/09 05:20:37;;;;;;;8.65;3.13;;;12.00;52.50;;;;;;5102573;28;20031;-71
2021/03/09 05:23:04;;;;;;;5.45;2.78;;;11.90;52.80;;;;;;5103448;28;20110;-72
2021/03/09 05:25:31;;;;;;;6.78;2.58;;;11.80;53.30;;;;;;5104023;28;20468;-72
2021/03/09 05:27:57;;;;;;;5.18;2.92;;;11.70;52.70;;;;;;5103742;28;20449;-72
2021/03/09 05:30:24;;;;;;;7.25;3.03;;;11.70;53.10;;;;;;5102825;28;20036;-73
2021/03/09 05:32:51;;;;;;;6.47;2.95;;;11.60;53.00;;;;;;5104797;28;20103;-74
2021/03/09 05:35:18;;;;;;;11.60;3.15;;;11.60;53.20;;;;;;5099221;28;20031;-73
2021/03/09 05:37:46;;;;;;;4.68;2.95;;;11.50;53.40;;;;;;5103198;28;21328;-73
2021/03/09 05:40:14;;;;;;;3.90;3.00;;;11.50;53.80;;;;;;5102866;28;20453;-72
2021/03/09 05:42:41;;;;;;;9.98;4.03;;;11.40;53.30;;;;;;5103742;28;20031;-72
2021/03/09 05:45:08;;;;;;;5.30;2.70;;;11.30;53.00;;;;;;5102988;28;20111;-72
2021/03/09 05:47:36;;;;;;;4.05;2.65;;;11.30;54.00;;;;;;5101022;28;20036;-72
2021/03/09 05:50:04;;;;;;;2.78;2.50;;;11.10;54.00;;;;;;5100386;28;20919;-72
2021/03/09 05:52:33;;;;;;;8.60;3.42;;;11.10;53.30;;;;;;5100785;28;20133;-72
2021/03/09 05:54:59;;;;;;;6.10;2.60;;;11.10;53.50;;;;;;5102973;28;20032;-72
2021/03/09 05:57:26;;;;;;;9.45;4.63;;;11.10;54.30;;;;;;5101942;28;20024;-76
2021/03/09 05:59:55;;;;;;;5.45;2.80;;;11.00;53.80;;;;;;5103864;28;20507;-72
2021/03/09 06:02:22;;;;;;;5.43;3.05;;;11.00;54.40;;;;;;5104196;28;20038;-72
2021/03/09 06:04:48;;;;;;;4.15;2.50;;;10.90;54.30;;;;;;5101651;28;20073;-72
2021/03/09 06:07:18;;;;;;;2.97;2.78;;;10.90;54.60;;;;;;5115733;28;20028;-72
2021/03/09 06:09:46;;;;;;;7.07;2.78;;;10.90;53.80;;;;;;5102577;28;20026;-72
2021/03/09 06:12:18;;;;;;;3.30;2.83;;;10.90;53.60;;;;;;5098170;28;20031;-72
2021/03/09 06:14:59;;;;;;;4.45;2.58;;;10.90;53.80;;;;;;5101650;28;20027;-72
2021/03/09 06:17:39;;;;;;;9.20;3.80;;;10.80;54.20;;;;;;5102150;28;20028;-73
2021/03/09 06:20:08;;;;;;;6.70;3.22;;;10.70;54.40;;;;;;5101097;28;20087;-73
2021/03/09 06:22:43;;;;;;;4.40;3.15;;;10.70;54.90;;;;;;5097019;28;20069;-72
2021/03/09 06:25:13;;;;;;;4.47;2.50;;;10.70;55.10;;;;;;5097282;28;20063;-72
2021/03/09 06:27:40;;;;;;;4.72;2.60;;;10.60;54.70;;;;;;5101958;28;20102;-72
2021/03/09 06:30:25;;;;;;;11.20;2.88;;;10.60;55.10;;;;;;5104266;28;20020;-72
2021/03/09 06:32:53;;;;;;;5.45;3.03;;;10.60;54.30;;;;;;5101523;28;20019;-72
2021/03/09 06:35:39;;;;;;;6.40;2.75;;;10.50;54.30;;;;;;5101362;28;20338;-72
2021/03/09 06:38:19;;;;;;;5.80;2.80;;;10.40;54.40;;;;;;5102250;28;20024;-72
2021/03/09 06:41:12;;;;;;;2.97;2.70;;;10.40;54.00;;;;;;5103559;28;20471;-73
2021/03/09 06:43:41;;;;;;;5.38;2.58;;;10.40;54.30;;;;;;5099527;28;20108;-72
2021/03/09 06:46:14;;;;;;;6.15;2.78;;;10.20;55.30;;;;;;5099037;28;20529;-72
2021/03/09 06:48:41;;;;;;;8.60;2.95;;;10.10;54.90;;;;;;5099847;28;20066;-72
2021/03/09 06:51:33;;;;;;;8.15;2.95;;;10.00;54.60;;;;;;5096322;28;20183;-72
2021/03/09 06:54:06;;;;;;;6.13;2.67;;;9.90;54.90;;;;;;5096805;28;20103;-72
2021/03/09 06:56:38;;;;;;;3.70;2.70;;;9.80;55.60;;;;;;5096415;28;20032;-72
2021/03/09 06:59:25;;;;;;;7.18;3.35;;;9.80;54.10;;;;;;5099326;28;20024;-73
2021/03/09 07:02:09;;;;;;;6.15;2.97;;;9.80;54.10;;;;;;5097679;28;20035;-72
2021/03/09 07:04:37;;;;;;;6.75;3.00;;;9.80;55.00;;;;;;5097125;28;20031;-72
2021/03/09 07:07:04;;;;;;;3.58;3.05;;;9.70;55.60;;;;;;5096017;28;20057;-72
2021/03/09 07:09:32;;;;;;;8.18;3.10;;;9.80;55.60;;;;;;5097716;28;20092;-72
2021/03/09 07:12:01;;;;;;;8.88;3.45;;;9.70;56.20;;;;;;5102288;28;20024;-71
2021/03/09 07:14:31;;;;;;;5.60;2.80;;;9.60;55.90;;;;;;5105980;28;20019;-72
2021/03/09 07:17:02;;;;;;;5.20;3.25;;;9.60;55.60;;;;;;5102490;28;20426;-72
2021/03/09 07:19:37;;;;;;;7.53;3.50;;;9.60;56.40;;;;;;5103860;28;20034;-72
2021/03/09 07:22:06;;;;;;;8.50;3.25;;;9.50;56.50;;;;;;5103411;28;20024;-72
2021/03/09 07:24:33;;;;;;;8.93;3.35;;;9.60;55.80;;;;;;5104286;28;20015;-71
2021/03/09 07:27:11;;;;;;;5.35;3.10;;;9.60;55.60;;;;;;5104585;28;20090;-72
2021/03/09 07:29:43;;;;;;;5.80;3.65;;;9.60;56.30;;;;;;5105883;28;20061;-76
2021/03/09 07:32:12;;;;;;;6.68;3.72;;;9.60;56.10;;;;;;5104561;28;20078;-72
2021/03/09 07:34:38;;;;;;;7.25;3.63;;;9.70;57.60;;;;;;5105473;28;20039;-72
2021/03/09 07:37:05;;;;;;;9.27;4.28;;;9.70;57.40;;;;;;5104140;28;20023;-72
2021/03/09 07:39:33;;;;;;;7.88;2.80;;;9.70;56.60;;;;;;5105817;28;20039;-74
2021/03/09 07:42:00;;;;;;;6.20;3.10;;;9.80;57.20;;;;;;5101783;28;20130;-72
2021/03/09 07:44:28;;;;;;;4.95;3.63;;;9.80;56.60;;;;;;5106446;28;20449;-72
2021/03/09 07:46:55;;;;;;;5.03;2.95;;;10.00;57.30;;;;;;5105093;28;20343;-72
2021/03/09 07:49:21;;;;;;;11.25;3.90;;;10.00;56.60;;;;;;5105351;28;20432;-72
2021/03/09 07:52:11;;;;;;;6.47;3.65;;;10.10;57.00;;;;;;5104632;28;20032;-72
2021/03/09 07:54:38;;;;;;;6.93;3.17;;;10.10;57.00;;;;;;5101957;28;20044;-73
2021/03/09 07:57:22;;;;;;;6.93;2.95;;;10.10;56.80;;;;;;5100251;28;20024;-72
2021/03/09 07:59:55;;;;;;;8.05;3.67;;;10.10;57.10;;;;;;5102668;28;20031;-72
2021/03/09 08:02:40;;;;;;;6.38;3.20;;;10.20;57.30;;;;;;5101118;28;20365;-73
2021/03/09 08:05:09;;;;;;;7.18;3.00;;;10.30;57.20;;;;;;5111066;27;20469;-72
2021/03/09 08:07:49;;;;;;;10.90;3.80;;;10.30;57.30;;;;;;5101033;28;20027;-72
2021/03/09 08:10:28;;;;;;;4.78;3.47;;;10.40;58.00;;;;;;5095173;28;20119;-72
2021/03/09 08:13:15;;;;;;;5.22;3.20;;;10.50;58.20;;;;;;5100276;28;20177;-71
2021/03/09 08:15:43;;;;;;;5.13;2.90;;;10.50;57.40;;;;;;5103105;28;20020;-72
2021/03/09 08:18:24;;;;;;;3.33;2.65;;;10.30;57.70;;;;;;5103696;28;20173;-72
2021/03/09 08:20:56;;;;;;;8.15;3.08;;;10.20;57.90;;;;;;5101978;28;20088;-73
2021/03/09 08:23:35;;;;;;;6.25;3.10;;;10.20;58.20;;;;;;5101730;28;20390;-72
2021/03/09 08:26:03;;;;;;;4.05;3.70;;;10.20;57.80;;;;;;5102722;28;20019;-72
2021/03/09 08:28:34;;;;;;;5.35;3.33;;;10.20;58.50;;;;;;5103957;28;20472;-72
2021/03/09 08:31:12;;;;;;;7.03;3.38;;;10.30;58.00;;;;;;5104160;28;20084;-72
2021/03/09 08:33:48;;;;;;;10.15;2.75;;;10.30;57.20;;;;;;5102372;28;20020;-72
2021/03/09 08:36:24;;;;;;;8.30;3.63;;;10.30;58.30;;;;;;5103414;28;20031;-73
2021/03/09 08:39:03;;;;;;;5.93;3.03;;;10.30;58.30;;;;;;5104019;28;20031;-72
2021/03/09 08:41:49;;;;;;;8.88;2.60;;;10.20;58.30;;;;;;5100837;28;20097;-73
2021/03/09 08:44:16;;;;;;;5.60;3.03;;;10.20;57.70;;;;;;5100929;28;20407;-73
2021/03/09 08:47:05;;;;;;;4.28;2.55;;;10.20;58.20;;;;;;5101612;28;20036;-71
2021/03/09 08:49:37;;;;;;;7.72;3.28;;;10.10;58.20;;;;;;5101300;28;20035;-72
2021/03/09 08:52:19;;;;;;;3.83;2.90;;;10.10;58.20;;;;;;5100887;28;20019;-72
2021/03/09 08:54:48;;;;;;;6.53;3.55;;;10.10;58.00;;;;;;5102269;28;20032;-72
2021/03/09 08:57:24;;;;;;;5.03;2.92;;;10.00;58.20;;;;;;5103180;28;20429;-72
2021/03/09 09:00:00;;;;;;;2.97;2.40;;;10.00;58.30;;;;;;5102684;28;20020;-71
2021/03/09 09:02:27;;;;;;;4.68;2.78;;;10.00;58.30;;;;;;5102750;28;20102;-72
2021/03/09 09:04:59;;;;;;;5.35;2.50;;;10.00;58.30;;;;;;5100307;28;20031;-72
2021/03/09 09:07:40;;;;;;;3.20;2.72;;;9.90;58.30;;;;;;5103387;28;20067;-72
2021/03/09 09:10:11;;;;;;;4.43;2.53;;;10.00;58.40;;;;;;5101210;28;20046;-72
2021/03/09 09:12:40;;;;;;;6.13;2.90;;;9.90;58.70;;;;;;5095052;28;20027;-72
2021/03/09 09:15:13;;;;;;;6.90;3.65;;;9.90;58.30;;;;;;5103840;28;20066;-72
2021/03/09 09:17:43;;;;;;;17.42;10.32;;;9.90;58.20;;;;;;5103973;28;20024;-72
2021/03/09 09:20:23;;;;;;;10.95;6.93;;;9.80;58.20;;;;;;5101789;28;20020;-72
2021/03/09 09:22:52;;;;;;;7.40;3.95;;;9.70;58.30;;;;;;5101626;28;20466;-70
2021/03/09 09:25:19;;;;;;;4.85;3.03;;;9.70;59.00;;;;;;5097753;28;20019;-72
2021/03/09 09:27:47;;;;;;;9.02;4.50;;;9.70;58.40;;;;;;5100603;28;20488;-71
2021/03/09 09:30:20;;;;;;;5.63;3.42;;;9.60;58.20;;;;;;5100423;28;20066;-73
2021/03/09 09:32:53;;;;;;;6.60;3.63;;;9.50;58.70;;;;;;5100040;28;20024;-74
2021/03/09 09:35:21;;;;;;;4.70;3.85;;;9.50;58.20;;;;;;5098103;28;20032;-72
2021/03/09 09:37:55;;;;;;;4.57;2.83;;;9.50;59.10;;;;;;5102017;28;20027;-72
2021/03/09 09:40:25;;;;;;;4.80;2.72;;;9.40;58.80;;;;;;5100603;28;20027;-72
2021/03/09 09:42:57;;;;;;;7.97;3.15;;;9.40;59.30;;;;;;5100423;28;20036;-72
2021/03/09 09:45:24;;;;;;;6.63;3.30;;;9.40;59.00;;;;;;5103310;28;20027;-72
2021/03/09 09:47:52;;;;;;;5.25;2.58;;;9.40;58.60;;;;;;5103953;28;20035;-72
2021/03/09 09:50:20;;;;;;;10.50;3.28;;;9.30;57.60;;;;;;5101791;28;20331;-72
2021/03/09 09:53:02;;;;;;;9.65;3.10;;;9.40;57.50;;;;;;5096433;28;20150;-72
2021/03/09 09:55:31;;;;;;;7.30;3.28;;;9.30;59.00;;;;;;5095962;28;20063;-72
2021/03/09 09:58:00;;;;;;;6.85;3.33;;;9.20;59.30;;;;;;5101892;28;20028;-72
2021/03/09 10:00:29;;;;;;;13.63;3.45;;;9.20;59.00;;;;;;5100429;28;20024;-73
2021/03/09 10:03:14;;;;;;;8.57;3.00;;;9.20;57.60;;;;;;5097483;28;20095;-71
2021/03/09 10:05:43;;;;;;;6.25;3.90;;;9.10;59.20;;;;;;5102580;28;20092;-72
2021/03/09 10:08:10;;;;;;;13.93;5.07;;;9.10;58.80;;;;;;5099515;28;20028;-72
2021/03/09 10:10:38;;;;;;;10.40;4.25;;;9.10;58.10;;;;;;5101105;28;20028;-72
2021/03/09 10:13:23;;;;;;;5.78;3.40;;;9.10;58.10;;;;;;5101222;28;20103;-73
2021/03/09 10:15:50;;;;;;;9.43;3.97;;;9.10;58.40;;;;;;5100333;28;20445;-73
2021/03/09 10:18:28;;;;;;;8.82;4.63;;;9.10;58.90;;;;;;5105220;28;20078;-72
2021/03/09 10:21:14;;;;;;;13.00;4.28;;;9.10;59.20;;;;;;5107065;28;20028;-72
2021/03/09 10:23:58;;;;;;;15.90;4.82;;;9.10;59.00;;;;;;5102979;28;20024;-72
2021/03/09 10:26:32;;;;;;;7.60;3.58;;;9.20;59.60;;;;;;5106895;28;20040;-72
2021/03/09 10:29:13;;;;;;;10.10;4.07;;;9.10;59.70;;;;;;5103023;28;20024;-72
2021/03/09 10:31:57;;;;;;;10.48;3.92;;;9.00;59.40;;;;;;5104393;28;20035;-72
2021/03/09 10:34:51;;;;;;;11.25;3.83;;;9.00;59.10;;;;;;5104419;28;20023;-72
2021/03/09 10:37:31;;;;;;;9.63;3.53;;;8.90;59.00;;;;;;5101378;28;20062;-72
2021/03/09 10:40:05;;;;;;;8.95;3.95;;;8.90;59.20;;;;;;5105967;28;20020;-72
2021/03/09 10:42:35;;;;;;;9.10;3.38;;;9.00;59.80;;;;;;5103663;28;20035;-71
2021/03/09 10:45:18;;;;;;;10.05;3.53;;;9.00;60.30;;;;;;5103063;28;20450;-72
2021/03/09 10:47:47;;;;;;;;;;;8.90;60.40;;;;;;5104120;28;20050;-72
2021/03/09 10:50:15;;;;;;;7.38;3.42;;;9.00;60.00;;;;;;5102934;28;19999;-73
2021/03/09 10:52:41;;;;;;;5.82;3.67;;;8.90;60.20;;;;;;5099572;28;20075;-72
2021/03/09 10:55:08;;;;;;;10.68;3.83;;;9.00;60.00;;;;;;5105912;27;20146;-72
2021/03/09 10:57:35;;;;;;;10.48;3.92;;;9.00;59.60;;;;;;5103084;28;20027;-72
2021/03/09 11:00:02;;;;;;;11.35;4.20;;;9.10;60.40;;;;;;5103091;28;20516;-72
2021/03/09 11:02:29;;;;;;;8.90;4.25;;;9.00;61.00;;;;;;5101527;28;20455;-72
2021/03/09 11:04:55;;;;;;;6.68;3.90;;;8.90;61.50;;;;;;5100986;28;20449;-73
2021/03/09 11:07:22;;;;;;;16.70;5.78;;;8.90;61.60;;;;;;5103064;28;20429;-74
2021/03/09 11:09:48;;;;;;;4.93;3.53;;;8.90;60.80;;;;;;5101589;28;20118;-72
2021/03/09 11:12:14;;;;;;;9.50;5.03;;;8.90;61.10;;;;;;5104925;28;20033;-74
2021/03/09 11:14:41;;;;;;;7.82;4.03;;;8.90;61.30;;;;;;5104912;28;20032;-77
2021/03/09 11:17:07;;;;;;;9.90;3.30;;;8.90;61.30;;;;;;5102888;28;20028;-74
2021/03/09 11:19:33;;;;;;;10.68;3.97;;;8.90;60.60;;;;;;5104026;28;20031;-72
2021/03/09 11:22:01;;;;;;;12.65;3.25;;;9.00;60.30;;;;;;5106135;28;20016;-73
2021/03/09 11:24:27;;;;;;;11.88;4.15;;;9.00;62.10;;;;;;5105374;28;20166;-75
2021/03/09 11:27:00;;;;;;;13.13;4.32;;;8.90;61.80;;;;;;5102801;28;20424;-72
2021/03/09 11:29:28;;;;;;;9.50;4.15;;;9.00;60.30;;;;;;5103445;28;20045;-72
2021/03/09 11:31:54;;;;;;;7.80;3.72;;;9.00;59.80;;;;;;5101450;28;20165;-73
2021/03/09 11:34:21;;;;;;;10.27;4.18;;;9.00;60.50;;;;;;5101285;28;20482;-73
2021/03/09 11:36:47;;;;;;;10.15;4.03;;;9.00;61.40;;;;;;5103965;28;20028;-73
2021/03/09 11:39:14;;;;;;;7.47;4.07;;;9.00;60.40;;;;;;5102877;28;20098;-73
2021/03/09 11:41:40;;;;;;;7.35;3.83;;;9.00;61.50;;;;;;5104137;28;20020;-73
2021/03/09 11:44:26;;;;;;;9.90;3.65;;;8.90;61.00;;;;;;5099870;28;20020;-73
2021/03/09 11:46:52;;;;;;;5.28;3.60;;;8.80;62.20;;;;;;5102294;28;20520;-73
2021/03/09 11:49:19;;;;;;;9.10;3.67;;;8.80;62.40;;;;;;5102995;28;20449;-73
2021/03/09 11:51:45;;;;;;;5.95;4.05;;;8.80;62.50;;;;;;5103218;27;20338;-73
2021/03/09 11:54:12;;;;;;;8.88;3.65;;;8.90;62.40;;;;;;5105257;28;20020;-73
2021/03/09 11:56:39;;;;;;;8.07;4.00;;;8.80;62.50;;;;;;5102667;28;20112;-73
2021/03/09 11:59:05;;;;;;;4.43;2.65;;;8.80;62.70;;;;;;5105694;28;20042;-72
2021/03/09 12:01:32;;;;;;;6.93;3.47;;;8.80;62.70;;;;;;5103005;28;20024;-73
2021/03/09 12:03:58;;;;;;;10.10;3.10;;;8.80;62.30;;;;;;5103997;28;20028;-73
2021/03/09 12:06:25;;;;;;;8.57;3.85;;;8.90;62.20;;;;;;5104243;28;20088;-73
2021/03/09 12:08:51;;;;;;;8.02;3.63;;;8.90;62.30;;;;;;5100773;28;20445;-73
2021/03/09 12:11:19;;;;;;;7.93;3.75;;;8.90;62.50;;;;;;5103599;28;20023;-73
2021/03/09 12:13:46;;;;;;;4.60;3.40;;;8.90;62.40;;;;;;5093483;28;20036;-73
2021/03/09 12:16:12;;;;;;;6.97;4.03;;;8.90;62.40;;;;;;5102704;28;20039;-73
2021/03/09 12:18:38;;;;;;;7.47;3.50;;;8.90;60.60;;;;;;5103556;28;20020;-73
2021/03/09 12:21:05;;;;;;;8.77;3.58;;;9.00;62.30;;;;;;5103917;28;20023;-73
2021/03/09 12:23:32;;;;;;;9.70;3.80;;;8.80;63.00;;;;;;5098110;28;20034;-73
2021/03/09 12:25:58;;;;;;;9.10;4.13;;;8.90;62.40;;;;;;5103777;28;20102;-73
2021/03/09 12:28:25;;;;;;;5.15;3.40;;;8.90;62.70;;;;;;5100533;28;20035;-72
2021/03/09 12:30:51;;;;;;;3.60;3.10;;;8.90;62.90;;;;;;5100541;28;20019;-73
2021/03/09 12:33:17;;;;;;;7.97;3.80;;;8.80;63.00;;;;;;5104292;28;20073;-73
2021/03/09 12:35:45;;;;;;;6.75;3.10;;;8.80;63.10;;;;;;5103333;28;20350;-73
2021/03/09 12:38:11;;;;;;;4.65;3.10;;;8.90;63.00;;;;;;5102681;28;20089;-73
2021/03/09 12:40:38;;;;;;;6.75;3.15;;;8.90;62.80;;;;;;5099216;28;20529;-73
2021/03/09 12:43:04;;;;;;;6.80;3.75;;;8.90;63.00;;;;;;5102556;28;20099;-73
2021/03/09 12:45:31;;;;;;;14.45;3.72;;;8.90;61.80;;;;;;5102846;28;20032;-74
2021/03/09 12:47:58;;;;;;;15.18;5.03;;;9.10;60.50;;;;;;5101797;28;20156;-73
2021/03/09 12:50:25;;;;;;;9.07;4.65;;;9.50;63.80;;;;;;5102565;28;20043;-73
2021/03/09 12:52:52;;;;;;;8.15;3.50;;;9.80;63.70;;;;;;5098196;28;20059;-72
2021/03/09 12:55:18;;;;;;;12.93;3.60;;;10.00;62.80;;;;;;5102509;28;20039;-73
2021/03/09 12:57:45;;;;;;;10.02;3.55;;;10.00;62.10;;;;;;5101565;28;20484;-73
2021/03/09 13:00:12;;;;;;;11.95;4.07;;;10.20;63.40;;;;;;5103620;28;20024;-73
2021/03/09 13:02:38;;;;;;;6.28;3.65;;;10.30;62.80;;;;;;5101994;28;20024;-74
2021/03/09 13:05:06;;;;;;;8.85;3.50;;;10.30;62.10;;;;;;5100510;28;20028;-74
2021/03/09 13:07:33;;;;;;;8.82;3.78;;;10.20;62.80;;;;;;5101949;28;20417;-73